sensor_id;sensor_type;location;lat;lon;timestamp;pressure;altitude;pressure_sealevel;temperature;humidity
60479;BME280;46321;48.398;11.754;2023-03-30T00:01:19;96440.75;;;10.18;74.20
60479;BME280;46321;48.398;11.754;2023-03-30T00:03:46;96437.78;;;10.21;74.10
60479;BME280;46321;48.398;11.754;2023-03-30T00:06:13;96437.13;;;10.19;74.38
60479;BME280;46321;48.398;11.754;2023-03-30T00:08:45;96430.19;;;10.18;74.10
60479;BME280;46321;48.398;11.754;2023-03-30T00:11:12;96427.72;;;10.16;74.30
60479;BME280;46321;48.398;11.754;2023-03-30T00:13:40;96432.81;;;10.18;74.16
60479;BME280;46321;48.398;11.754;2023-03-30T00:16:08;96425.91;;;10.17;74.07
60479;BME280;46321;48.398;11.754;2023-03-30T00:18:34;96421.97;;;10.04;74.35
60479;BME280;46321;48.398;11.754;2023-03-30T00:21:01;96432.69;;;10.11;74.14
60479;BME280;46321;48.398;11.754;2023-03-30T00:23:27;96431.53;;;10.14;73.90
60479;BME280;46321;48.398;11.754;2023-03-30T00:25:53;96421.94;;;10.13;74.00
60479;BME280;46321;48.398;11.754;2023-03-30T00:28:18;96424.72;;;10.19;73.39
60479;BME280;46321;48.398;11.754;2023-03-30T00:30:43;96417.06;;;10.25;73.27
60479;BME280;46321;48.398;11.754;2023-03-30T00:33:08;96412.50;;;10.18;73.18
60479;BME280;46321;48.398;11.754;2023-03-30T00:35:34;96408.59;;;10.06;73.25
60479;BME280;46321;48.398;11.754;2023-03-30T00:38:00;96403.38;;;10.21;72.77
60479;BME280;46321;48.398;11.754;2023-03-30T00:40:28;96395.28;;;10.23;72.49
60479;BME280;46321;48.398;11.754;2023-03-30T00:43:00;96401.03;;;10.26;72.37
60479;BME280;46321;48.398;11.754;2023-03-30T00:45:28;96393.59;;;10.22;72.37
60479;BME280;46321;48.398;11.754;2023-03-30T00:48:02;96398.25;;;10.19;72.42
60479;BME280;46321;48.398;11.754;2023-03-30T00:50:33;96390.97;;;10.22;72.30
60479;BME280;46321;48.398;11.754;2023-03-30T00:53:00;96391.91;;;10.29;71.93
60479;BME280;46321;48.398;11.754;2023-03-30T00:55:29;96385.00;;;10.28;71.83
60479;BME280;46321;48.398;11.754;2023-03-30T00:57:56;96378.50;;;10.30;71.79
60479;BME280;46321;48.398;11.754;2023-03-30T01:00:21;96378.88;;;10.27;72.25
60479;BME280;46321;48.398;11.754;2023-03-30T01:02:56;96381.16;;;10.30;71.89
60479;BME280;46321;48.398;11.754;2023-03-30T01:05:25;96370.94;;;10.27;71.97
60479;BME280;46321;48.398;11.754;2023-03-30T01:07:52;96373.41;;;10.29;71.99
60479;BME280;46321;48.398;11.754;2023-03-30T01:10:18;96372.75;;;10.27;72.15
60479;BME280;46321;48.398;11.754;2023-03-30T01:12:44;96365.00;;;10.25;72.00
60479;BME280;46321;48.398;11.754;2023-03-30T01:15:10;96364.34;;;10.23;72.09
60479;BME280;46321;48.398;11.754;2023-03-30T01:18:01;96363.72;;;10.21;71.98
60479;BME280;46321;48.398;11.754;2023-03-30T01:21:00;96365.06;;;10.17;72.17
60479;BME280;46321;48.398;11.754;2023-03-30T01:26:51;96364.06;;;10.18;72.17
60479;BME280;46321;48.398;11.754;2023-03-30T01:32:35;96363.88;;;10.19;72.05
60479;BME280;46321;48.398;11.754;2023-03-30T01:40:16;96358.75;;;10.18;72.23
60479;BME280;46321;48.398;11.754;2023-03-30T01:43:06;96361.59;;;10.16;72.18
60479;BME280;46321;48.398;11.754;2023-03-30T01:48:12;96362.88;;;10.21;71.95
60479;BME280;46321;48.398;11.754;2023-03-30T01:50:49;96355.41;;;10.24;71.87
60479;BME280;46321;48.398;11.754;2023-03-30T01:53:23;96347.00;;;10.21;72.57
60479;BME280;46321;48.398;11.754;2023-03-30T01:55:57;96341.25;;;10.17;72.53
60479;BME280;46321;48.398;11.754;2023-03-30T01:58:33;96333.84;;;10.12;72.52
60479;BME280;46321;48.398;11.754;2023-03-30T02:01:02;96337.66;;;10.10;72.84
60479;BME280;46321;48.398;11.754;2023-03-30T02:03:31;96342.31;;;10.07;72.81
60479;BME280;46321;48.398;11.754;2023-03-30T02:06:02;96348.44;;;10.08;72.79
60479;BME280;46321;48.398;11.754;2023-03-30T02:08:32;96350.88;;;10.10;72.52
60479;BME280;46321;48.398;11.754;2023-03-30T02:10:59;96355.34;;;10.09;72.57
60479;BME280;46321;48.398;11.754;2023-03-30T02:13:26;96357.34;;;10.07;72.43
60479;BME280;46321;48.398;11.754;2023-03-30T02:16:03;96349.94;;;10.02;72.40
60479;BME280;46321;48.398;11.754;2023-03-30T02:18:31;96359.22;;;9.98;72.62
60479;BME280;46321;48.398;11.754;2023-03-30T02:20:57;96350.81;;;9.94;72.75
60479;BME280;46321;48.398;11.754;2023-03-30T02:23:27;96357.94;;;9.94;72.38
60479;BME280;46321;48.398;11.754;2023-03-30T02:25:55;96359.56;;;9.95;72.73
60479;BME280;46321;48.398;11.754;2023-03-30T02:28:21;96354.13;;;9.96;72.37
60479;BME280;46321;48.398;11.754;2023-03-30T02:30:46;96369.66;;;9.91;72.62
60479;BME280;46321;48.398;11.754;2023-03-30T02:33:22;96372.00;;;9.86;72.92
60479;BME280;46321;48.398;11.754;2023-03-30T02:39:01;96381.66;;;9.79;73.61
60479;BME280;46321;48.398;11.754;2023-03-30T02:41:50;96387.09;;;9.77;73.84
60479;BME280;46321;48.398;11.754;2023-03-30T02:44:45;96390.56;;;9.78;73.60
60479;BME280;46321;48.398;11.754;2023-03-30T02:47:43;96382.50;;;9.71;74.18
60479;BME280;46321;48.398;11.754;2023-03-30T02:50:18;96384.16;;;9.72;74.06
60479;BME280;46321;48.398;11.754;2023-03-30T02:52:55;96392.88;;;9.72;74.26
60479;BME280;46321;48.398;11.754;2023-03-30T02:55:37;96392.09;;;9.72;74.34
60479;BME280;46321;48.398;11.754;2023-03-30T02:58:14;96395.25;;;9.67;74.77
60479;BME280;46321;48.398;11.754;2023-03-30T03:00:49;96402.66;;;9.72;74.60
60479;BME280;46321;48.398;11.754;2023-03-30T03:03:21;96411.25;;;9.74;74.64
60479;BME280;46321;48.398;11.754;2023-03-30T03:05:50;96393.72;;;9.73;74.93
60479;BME280;46321;48.398;11.754;2023-03-30T03:08:19;96393.72;;;9.73;75.43
60479;BME280;46321;48.398;11.754;2023-03-30T03:10:45;96396.19;;;9.74;75.59
60479;BME280;46321;48.398;11.754;2023-03-30T03:13:10;96387.13;;;9.69;75.93
60479;BME280;46321;48.398;11.754;2023-03-30T03:15:37;96386.09;;;9.78;75.37
60479;BME280;46321;48.398;11.754;2023-03-30T03:18:02;96383.19;;;9.65;75.28
60479;BME280;46321;48.398;11.754;2023-03-30T03:20:28;96379.19;;;9.69;75.43
60479;BME280;46321;48.398;11.754;2023-03-30T03:22:54;96373.53;;;9.80;74.97
60479;BME280;46321;48.398;11.754;2023-03-30T03:25:20;96379.47;;;9.82;74.68
60479;BME280;46321;48.398;11.754;2023-03-30T03:27:45;96392.34;;;9.85;74.65
60479;BME280;46321;48.398;11.754;2023-03-30T03:30:11;96390.00;;;9.91;74.68
60479;BME280;46321;48.398;11.754;2023-03-30T03:32:36;96380.75;;;9.87;74.64
60479;BME280;46321;48.398;11.754;2023-03-30T03:35:02;96381.41;;;9.89;74.73
60479;BME280;46321;48.398;11.754;2023-03-30T03:37:27;96369.34;;;9.94;75.14
60479;BME280;46321;48.398;11.754;2023-03-30T03:39:52;96360.84;;;9.76;76.38
60479;BME280;46321;48.398;11.754;2023-03-30T03:42:17;96348.31;;;9.69;76.82
60479;BME280;46321;48.398;11.754;2023-03-30T03:44:44;96341.09;;;9.87;76.51
60479;BME280;46321;48.398;11.754;2023-03-30T03:47:09;96352.34;;;9.89;76.95
60479;BME280;46321;48.398;11.754;2023-03-30T03:49:37;96349.50;;;9.90;77.80
60479;BME280;46321;48.398;11.754;2023-03-30T03:52:03;96380.75;;;9.87;78.81
60479;BME280;46321;48.398;11.754;2023-03-30T03:54:28;96389.41;;;9.80;79.01
60479;BME280;46321;48.398;11.754;2023-03-30T03:56:53;96391.66;;;9.83;79.03
60479;BME280;46321;48.398;11.754;2023-03-30T03:59:18;96411.50;;;9.88;78.55
60479;BME280;46321;48.398;11.754;2023-03-30T04:01:44;96413.84;;;9.82;79.13
60479;BME280;46321;48.398;11.754;2023-03-30T04:04:09;96422.97;;;9.71;79.82
60479;BME280;46321;48.398;11.754;2023-03-30T04:06:34;96407.44;;;9.68;80.36
60479;BME280;46321;48.398;11.754;2023-03-30T04:09:00;96406.88;;;9.81;80.13
60479;BME280;46321;48.398;11.754;2023-03-30T04:11:26;96406.09;;;9.81;80.50
60479;BME280;46321;48.398;11.754;2023-03-30T04:13:52;96398.63;;;9.84;81.21
60479;BME280;46321;48.398;11.754;2023-03-30T04:16:17;96402.25;;;9.83;81.46
60479;BME280;46321;48.398;11.754;2023-03-30T04:18:42;96403.53;;;9.96;81.35
60479;BME280;46321;48.398;11.754;2023-03-30T04:21:07;96405.16;;;9.97;81.72
60479;BME280;46321;48.398;11.754;2023-03-30T04:23:37;96392.06;;;10.04;81.82
60479;BME280;46321;48.398;11.754;2023-03-30T04:26:05;96409.53;;;10.13;81.93
60479;BME280;46321;48.398;11.754;2023-03-30T04:28:32;96416.66;;;10.13;82.40
60479;BME280;46321;48.398;11.754;2023-03-30T04:30:59;96425.72;;;10.18;82.81
60479;BME280;46321;48.398;11.754;2023-03-30T04:33:25;96426.84;;;10.24;82.59
60479;BME280;46321;48.398;11.754;2023-03-30T04:35:50;96429.78;;;10.29;82.52
60479;BME280;46321;48.398;11.754;2023-03-30T04:38:15;96440.38;;;10.29;82.32
60479;BME280;46321;48.398;11.754;2023-03-30T04:40:47;96435.53;;;10.33;82.31
60479;BME280;46321;48.398;11.754;2023-03-30T04:43:12;96440.03;;;10.33;82.56
60479;BME280;46321;48.398;11.754;2023-03-30T04:45:38;96438.38;;;10.31;82.59
60479;BME280;46321;48.398;11.754;2023-03-30T04:48:04;96434.38;;;10.36;82.35
60479;BME280;46321;48.398;11.754;2023-03-30T04:50:29;96434.38;;;10.36;82.56
60479;BME280;46321;48.398;11.754;2023-03-30T04:52:55;96436.69;;;10.39;82.37
60479;BME280;46321;48.398;11.754;2023-03-30T04:55:20;96429.91;;;10.36;82.80
60479;BME280;46321;48.398;11.754;2023-03-30T04:57:45;96415.19;;;10.34;83.73
60479;BME280;46321;48.398;11.754;2023-03-30T05:00:11;96414.56;;;10.31;84.31
60479;BME280;46321;48.398;11.754;2023-03-30T05:02:37;96417.28;;;10.15;86.88
60479;BME280;46321;48.398;11.754;2023-03-30T05:05:03;96417.53;;;10.05;88.00
60479;BME280;46321;48.398;11.754;2023-03-30T05:07:28;96422.38;;;10.25;87.64
60479;BME280;46321;48.398;11.754;2023-03-30T05:09:53;96423.44;;;10.39;87.25
60479;BME280;46321;48.398;11.754;2023-03-30T05:12:19;96418.28;;;10.46;86.89
60479;BME280;46321;48.398;11.754;2023-03-30T05:14:45;96410.31;;;10.54;87.21
60479;BME280;46321;48.398;11.754;2023-03-30T05:17:10;96407.09;;;10.35;88.62
60479;BME280;46321;48.398;11.754;2023-03-30T05:19:35;96397.34;;;10.36;88.64
60479;BME280;46321;48.398;11.754;2023-03-30T05:22:00;96404.81;;;10.32;89.15
60479;BME280;46321;48.398;11.754;2023-03-30T05:24:26;96396.50;;;10.35;89.36
60479;BME280;46321;48.398;11.754;2023-03-30T05:26:51;96398.56;;;10.25;90.85
60479;BME280;46321;48.398;11.754;2023-03-30T05:29:17;96385.91;;;10.35;90.39
60479;BME280;46321;48.398;11.754;2023-03-30T05:31:42;96381.28;;;10.37;90.89
60479;BME280;46321;48.398;11.754;2023-03-30T05:34:07;96378.88;;;10.27;91.76
60479;BME280;46321;48.398;11.754;2023-03-30T05:36:32;96384.75;;;10.38;91.50
60479;BME280;46321;48.398;11.754;2023-03-30T05:38:59;96382.75;;;10.40;91.47
60479;BME280;46321;48.398;11.754;2023-03-30T05:41:25;96380.28;;;10.38;92.02
60479;BME280;46321;48.398;11.754;2023-03-30T05:43:52;96371.44;;;10.46;91.73
60479;BME280;46321;48.398;11.754;2023-03-30T05:46:17;96372.81;;;10.42;92.39
60479;BME280;46321;48.398;11.754;2023-03-30T05:48:42;96369.13;;;10.51;92.10
60479;BME280;46321;48.398;11.754;2023-03-30T05:51:07;96367.44;;;10.59;91.68
60479;BME280;46321;48.398;11.754;2023-03-30T05:53:33;96370.25;;;10.57;92.15
60479;BME280;46321;48.398;11.754;2023-03-30T05:55:58;96373.38;;;10.61;92.12
60479;BME280;46321;48.398;11.754;2023-03-30T05:58:23;96365.34;;;10.69;92.25
60479;BME280;46321;48.398;11.754;2023-03-30T06:00:48;96351.09;;;10.55;92.42
60479;BME280;46321;48.398;11.754;2023-03-30T06:03:14;96354.75;;;10.69;92.32
60479;BME280;46321;48.398;11.754;2023-03-30T06:05:40;96356.78;;;10.82;91.85
60479;BME280;46321;48.398;11.754;2023-03-30T06:08:09;96343.00;;;10.72;92.09
60479;BME280;46321;48.398;11.754;2023-03-30T06:10:35;96332.50;;;10.79;92.07
60479;BME280;46321;48.398;11.754;2023-03-30T06:13:00;96329.22;;;10.92;91.75
60479;BME280;46321;48.398;11.754;2023-03-30T06:15:26;96333.09;;;11.04;90.63
60479;BME280;46321;48.398;11.754;2023-03-30T06:17:52;96326.22;;;10.95;91.26
60479;BME280;46321;48.398;11.754;2023-03-30T06:20:18;96328.34;;;10.99;91.45
60479;BME280;46321;48.398;11.754;2023-03-30T06:22:46;96326.59;;;11.07;90.98
60479;BME280;46321;48.398;11.754;2023-03-30T06:25:12;96320.66;;;11.05;90.97
60479;BME280;46321;48.398;11.754;2023-03-30T06:27:38;96323.94;;;10.92;91.96
60479;BME280;46321;48.398;11.754;2023-03-30T06:30:04;96322.22;;;10.99;91.88
60479;BME280;46321;48.398;11.754;2023-03-30T06:32:30;96322.50;;;11.04;91.63
60479;BME280;46321;48.398;11.754;2023-03-30T06:34:55;96315.00;;;10.93;92.21
60479;BME280;46321;48.398;11.754;2023-03-30T06:37:20;96310.88;;;10.90;92.81
60479;BME280;46321;48.398;11.754;2023-03-30T06:39:46;96302.38;;;11.10;91.77
60479;BME280;46321;48.398;11.754;2023-03-30T06:42:11;96298.16;;;11.16;91.70
60479;BME280;46321;48.398;11.754;2023-03-30T06:44:36;96294.53;;;11.17;91.50
60479;BME280;46321;48.398;11.754;2023-03-30T06:47:02;96286.59;;;11.17;91.23
60479;BME280;46321;48.398;11.754;2023-03-30T06:49:29;96288.41;;;11.16;91.14
60479;BME280;46321;48.398;11.754;2023-03-30T06:51:55;96279.78;;;11.29;90.26
60479;BME280;46321;48.398;11.754;2023-03-30T06:54:20;96271.75;;;11.38;90.13
60479;BME280;46321;48.398;11.754;2023-03-30T06:56:46;96277.88;;;11.38;89.90
60479;BME280;46321;48.398;11.754;2023-03-30T06:59:12;96273.69;;;11.29;90.39
60479;BME280;46321;48.398;11.754;2023-03-30T07:01:37;96266.00;;;11.34;90.25
60479;BME280;46321;48.398;11.754;2023-03-30T07:04:03;96267.75;;;11.27;90.21
60479;BME280;46321;48.398;11.754;2023-03-30T07:06:28;96267.66;;;11.35;90.37
60479;BME280;46321;48.398;11.754;2023-03-30T07:08:53;96271.28;;;11.34;90.00
60479;BME280;46321;48.398;11.754;2023-03-30T07:11:19;96266.00;;;11.34;90.09
60479;BME280;46321;48.398;11.754;2023-03-30T07:13:44;96249.09;;;11.35;89.89
60479;BME280;46321;48.398;11.754;2023-03-30T07:16:10;96254.13;;;11.30;90.50
60479;BME280;46321;48.398;11.754;2023-03-30T07:18:35;96250.00;;;11.42;89.66
60479;BME280;46321;48.398;11.754;2023-03-30T07:21:00;96252.28;;;11.45;89.19
60479;BME280;46321;48.398;11.754;2023-03-30T07:23:26;96246.59;;;11.49;89.19
60479;BME280;46321;48.398;11.754;2023-03-30T07:25:51;96229.59;;;11.58;88.66
60479;BME280;46321;48.398;11.754;2023-03-30T07:28:17;96236.38;;;11.67;88.81
60479;BME280;46321;48.398;11.754;2023-03-30T07:30:42;96248.66;;;11.68;88.60
60479;BME280;46321;48.398;11.754;2023-03-30T07:33:08;96235.25;;;11.77;88.09
60479;BME280;46321;48.398;11.754;2023-03-30T07:35:33;96239.50;;;11.93;88.23
60479;BME280;46321;48.398;11.754;2023-03-30T07:37:58;96233.63;;;12.20;87.13
60479;BME280;46321;48.398;11.754;2023-03-30T07:40:23;96225.25;;;12.16;85.25
60479;BME280;46321;48.398;11.754;2023-03-30T07:42:49;96225.47;;;12.21;85.82
60479;BME280;46321;48.398;11.754;2023-03-30T07:45:14;96230.88;;;12.35;85.80
60479;BME280;46321;48.398;11.754;2023-03-30T07:47:40;96231.44;;;12.52;84.76
60479;BME280;46321;48.398;11.754;2023-03-30T07:50:06;96224.06;;;12.25;85.05
60479;BME280;46321;48.398;11.754;2023-03-30T07:52:31;96227.94;;;12.23;85.46
60479;BME280;46321;48.398;11.754;2023-03-30T07:54:56;96236.53;;;12.25;86.29
60479;BME280;46321;48.398;11.754;2023-03-30T07:57:22;96232.75;;;12.12;85.83
60479;BME280;46321;48.398;11.754;2023-03-30T07:59:48;96235.81;;;11.94;86.61
60479;BME280;46321;48.398;11.754;2023-03-30T08:02:14;96238.16;;;12.04;86.54
60479;BME280;46321;48.398;11.754;2023-03-30T08:04:39;96250.31;;;12.13;85.99
60479;BME280;46321;48.398;11.754;2023-03-30T08:07:06;96247.38;;;12.08;86.12
60479;BME280;46321;48.398;11.754;2023-03-30T08:09:31;96262.81;;;12.20;86.13
60479;BME280;46321;48.398;11.754;2023-03-30T08:11:57;96253.44;;;12.24;85.92
60479;BME280;46321;48.398;11.754;2023-03-30T08:14:25;96252.47;;;12.25;85.71
60479;BME280;46321;48.398;11.754;2023-03-30T08:16:55;96243.56;;;12.40;85.42
60479;BME280;46321;48.398;11.754;2023-03-30T08:19:22;96247.31;;;12.45;85.55
60479;BME280;46321;48.398;11.754;2023-03-30T08:21:48;96236.44;;;12.40;85.30
60479;BME280;46321;48.398;11.754;2023-03-30T08:24:13;96222.19;;;12.48;85.06
60479;BME280;46321;48.398;11.754;2023-03-30T08:26:39;96230.78;;;12.50;85.43
60479;BME280;46321;48.398;11.754;2023-03-30T08:29:04;96225.47;;;12.50;84.41
60479;BME280;46321;48.398;11.754;2023-03-30T08:31:31;96190.31;;;12.48;83.98
60479;BME280;46321;48.398;11.754;2023-03-30T08:33:57;96202.56;;;12.42;83.90
60479;BME280;46321;48.398;11.754;2023-03-30T08:36:23;96207.53;;;12.59;82.40
60479;BME280;46321;48.398;11.754;2023-03-30T08:38:48;96216.97;;;12.62;82.34
60479;BME280;46321;48.398;11.754;2023-03-30T08:46:44;96195.88;;;12.89;78.91
60479;BME280;46321;48.398;11.754;2023-03-30T08:49:16;96200.28;;;12.68;79.86
60479;BME280;46321;48.398;11.754;2023-03-30T08:51:43;96214.78;;;12.72;79.07
60479;BME280;46321;48.398;11.754;2023-03-30T08:54:18;96223.59;;;12.79;78.14
60479;BME280;46321;48.398;11.754;2023-03-30T08:56:58;96238.97;;;12.91;78.43
60479;BME280;46321;48.398;11.754;2023-03-30T09:02:18;96241.88;;;12.96;78.21
60479;BME280;46321;48.398;11.754;2023-03-30T09:05:05;96212.09;;;13.08;78.58
60479;BME280;46321;48.398;11.754;2023-03-30T09:07:39;96206.13;;;12.99;80.75
60479;BME280;46321;48.398;11.754;2023-03-30T09:10:11;96202.94;;;13.17;79.38
60479;BME280;46321;48.398;11.754;2023-03-30T09:12:41;96198.69;;;13.36;78.90
60479;BME280;46321;48.398;11.754;2023-03-30T09:18:20;96184.84;;;13.55;76.96
60479;BME280;46321;48.398;11.754;2023-03-30T09:20:50;96182.44;;;13.73;76.28
60479;BME280;46321;48.398;11.754;2023-03-30T09:23:16;96177.56;;;14.04;75.07
60479;BME280;46321;48.398;11.754;2023-03-30T09:28:26;96187.22;;;14.99;72.45
60479;BME280;46321;48.398;11.754;2023-03-30T09:31:01;96192.47;;;15.59;69.16
60479;BME280;46321;48.398;11.754;2023-03-30T09:33:39;96191.75;;;16.02;70.63
60479;BME280;46321;48.398;11.754;2023-03-30T09:36:12;96185.56;;;16.09;66.39
60479;BME280;46321;48.398;11.754;2023-03-30T09:38:38;96196.56;;;16.82;65.94
60479;BME280;46321;48.398;11.754;2023-03-30T09:43:58;96193.34;;;17.92;60.58
60479;BME280;46321;48.398;11.754;2023-03-30T09:46:24;96191.28;;;17.63;61.79
60479;BME280;46321;48.398;11.754;2023-03-30T09:48:50;96201.31;;;17.68;62.61
60479;BME280;46321;48.398;11.754;2023-03-30T09:51:20;96202.84;;;17.76;61.74
60479;BME280;46321;48.398;11.754;2023-03-30T09:53:48;96194.59;;;17.77;61.92
60479;BME280;46321;48.398;11.754;2023-03-30T09:58:42;96187.78;;;18.17;61.61
60479;BME280;46321;48.398;11.754;2023-03-30T10:03:37;96184.47;;;18.34;59.21
60479;BME280;46321;48.398;11.754;2023-03-30T10:06:04;96190.97;;;18.74;60.13
60479;BME280;46321;48.398;11.754;2023-03-30T10:08:32;96193.47;;;19.05;57.80
60479;BME280;46321;48.398;11.754;2023-03-30T10:10:59;96189.38;;;19.03;57.67
60479;BME280;46321;48.398;11.754;2023-03-30T10:13:34;96190.47;;;18.77;57.00
60479;BME280;46321;48.398;11.754;2023-03-30T10:16:06;96198.22;;;18.50;57.93
60479;BME280;46321;48.398;11.754;2023-03-30T10:18:43;96197.63;;;18.48;57.83
60479;BME280;46321;48.398;11.754;2023-03-30T10:23:38;96189.56;;;18.84;56.17
60479;BME280;46321;48.398;11.754;2023-03-30T10:26:11;96174.19;;;19.20;56.51
60479;BME280;46321;48.398;11.754;2023-03-30T10:28:37;96179.00;;;19.48;57.25
60479;BME280;46321;48.398;11.754;2023-03-30T10:31:06;96189.72;;;19.48;55.96
60479;BME280;46321;48.398;11.754;2023-03-30T10:33:38;96196.47;;;19.21;56.06
60479;BME280;46321;48.398;11.754;2023-03-30T10:36:05;96195.81;;;18.90;58.60
60479;BME280;46321;48.398;11.754;2023-03-30T10:38:31;96200.16;;;18.79;58.84
60479;BME280;46321;48.398;11.754;2023-03-30T10:41:20;96194.69;;;18.37;57.12
60479;BME280;46321;48.398;11.754;2023-03-30T10:43:47;96211.81;;;18.24;58.54
60479;BME280;46321;48.398;11.754;2023-03-30T10:46:17;96224.91;;;17.90;58.51
60479;BME280;46321;48.398;11.754;2023-03-30T10:49:04;96219.19;;;17.55;59.43
60479;BME280;46321;48.398;11.754;2023-03-30T10:54:22;96233.88;;;17.34;61.04
60479;BME280;46321;48.398;11.754;2023-03-30T10:57:00;96248.03;;;16.97;60.39
60479;BME280;46321;48.398;11.754;2023-03-30T11:04:47;96246.72;;;17.06;60.90
60479;BME280;46321;48.398;11.754;2023-03-30T11:07:30;96254.22;;;17.16;60.75
60479;BME280;46321;48.398;11.754;2023-03-30T11:10:05;96256.50;;;17.50;60.74
60479;BME280;46321;48.398;11.754;2023-03-30T11:12:38;96262.47;;;17.33;60.60
60479;BME280;46321;48.398;11.754;2023-03-30T11:15:11;96284.44;;;16.98;61.66
60479;BME280;46321;48.398;11.754;2023-03-30T11:17:52;96283.44;;;16.92;61.40
60479;BME280;46321;48.398;11.754;2023-03-30T11:20:25;96287.69;;;16.81;62.35
60479;BME280;46321;48.398;11.754;2023-03-30T11:22:58;96293.84;;;16.30;62.80
60479;BME280;46321;48.398;11.754;2023-03-30T11:25:29;96291.50;;;16.15;63.40
60479;BME280;46321;48.398;11.754;2023-03-30T11:28:12;96290.91;;;16.39;63.19
60479;BME280;46321;48.398;11.754;2023-03-30T11:30:40;96296.41;;;16.18;64.29
60479;BME280;46321;48.398;11.754;2023-03-30T11:33:24;96311.34;;;15.87;64.36
60479;BME280;46321;48.398;11.754;2023-03-30T11:35:59;96308.56;;;15.68;65.70
60479;BME280;46321;48.398;11.754;2023-03-30T11:38:40;96303.66;;;15.65;65.12
60479;BME280;46321;48.398;11.754;2023-03-30T11:41:34;96314.19;;;15.46;65.47
60479;BME280;46321;48.398;11.754;2023-03-30T11:44:00;96318.56;;;15.20;66.38
60479;BME280;46321;48.398;11.754;2023-03-30T11:46:33;96314.47;;;15.24;66.91
60479;BME280;46321;48.398;11.754;2023-03-30T11:49:29;96310.19;;;15.09;67.82
60479;BME280;46321;48.398;11.754;2023-03-30T11:52:24;96316.34;;;15.03;67.63
60479;BME280;46321;48.398;11.754;2023-03-30T12:05:43;96345.03;;;14.33;70.49
60479;BME280;46321;48.398;11.754;2023-03-30T12:09:12;96357.94;;;14.36;70.48
60479;BME280;46321;48.398;11.754;2023-03-30T12:11:32;96387.59;;;14.19;71.09
60479;BME280;46321;48.398;11.754;2023-03-30T12:13:59;96383.44;;;13.96;71.79
60479;BME280;46321;48.398;11.754;2023-03-30T12:16:36;96350.56;;;13.62;72.58
60479;BME280;46321;48.398;11.754;2023-03-30T12:19:24;96365.00;;;13.46;73.34
60479;BME280;46321;48.398;11.754;2023-03-30T12:21:54;96352.50;;;13.39;73.43
60479;BME280;46321;48.398;11.754;2023-03-30T12:26:52;96339.09;;;13.19;73.71
60479;BME280;46321;48.398;11.754;2023-03-30T12:29:18;96340.56;;;13.28;73.91
60479;BME280;46321;48.398;11.754;2023-03-30T12:34:14;96328.13;;;13.00;73.61
60479;BME280;46321;48.398;11.754;2023-03-30T12:36:47;96305.25;;;12.99;73.89
60479;BME280;46321;48.398;11.754;2023-03-30T12:39:19;96307.31;;;13.04;73.38
60479;BME280;46321;48.398;11.754;2023-03-30T12:41:49;96317.06;;;12.90;74.32
60479;BME280;46321;48.398;11.754;2023-03-30T12:44:22;96292.34;;;12.96;74.03
60479;BME280;46321;48.398;11.754;2023-03-30T12:47:16;96297.28;;;13.06;74.32
60479;BME280;46321;48.398;11.754;2023-03-30T13:00:53;96294.84;;;13.04;73.75
60479;BME280;46321;48.398;11.754;2023-03-30T13:03:45;96286.25;;;13.02;74.21
60479;BME280;46321;48.398;11.754;2023-03-30T13:06:27;96286.25;;;13.02;73.59
60479;BME280;46321;48.398;11.754;2023-03-30T13:08:56;96286.63;;;12.92;72.66
60479;BME280;46321;48.398;11.754;2023-03-30T13:11:42;96286.19;;;12.89;72.50
60479;BME280;46321;48.398;11.754;2023-03-30T13:14:43;96293.00;;;12.69;73.76
60479;BME280;46321;48.398;11.754;2023-03-30T13:17:14;96294.25;;;12.74;73.39
60479;BME280;46321;48.398;11.754;2023-03-30T13:19:44;96294.94;;;12.82;72.97
60479;BME280;46321;48.398;11.754;2023-03-30T13:24:45;96281.41;;;12.77;73.18
60479;BME280;46321;48.398;11.754;2023-03-30T13:27:22;96280.00;;;12.81;72.83
60479;BME280;46321;48.398;11.754;2023-03-30T13:29:52;96276.97;;;12.85;72.94
60479;BME280;46321;48.398;11.754;2023-03-30T13:40:53;96297.88;;;12.66;73.12
60479;BME280;46321;48.398;11.754;2023-03-30T13:46:12;96284.91;;;12.49;73.75
60479;BME280;46321;48.398;11.754;2023-03-30T13:51:23;96275.84;;;12.43;73.50
60479;BME280;46321;48.398;11.754;2023-03-30T13:56:21;96275.41;;;12.40;74.45
60479;BME280;46321;48.398;11.754;2023-03-30T13:58:51;96273.03;;;12.45;74.16
60479;BME280;46321;48.398;11.754;2023-03-30T14:01:19;96276.44;;;12.39;74.31
60479;BME280;46321;48.398;11.754;2023-03-30T14:03:53;96284.34;;;12.32;74.65
60479;BME280;46321;48.398;11.754;2023-03-30T14:06:22;96291.22;;;12.26;74.71
60479;BME280;46321;48.398;11.754;2023-03-30T14:11:39;96283.53;;;12.31;74.55
60479;BME280;46321;48.398;11.754;2023-03-30T14:14:05;96273.91;;;12.30;75.08
60479;BME280;46321;48.398;11.754;2023-03-30T14:16:34;96266.72;;;12.24;75.04
60479;BME280;46321;48.398;11.754;2023-03-30T14:19:17;96265.75;;;12.10;76.35
60479;BME280;46321;48.398;11.754;2023-03-30T14:21:45;96276.03;;;12.13;76.03
60479;BME280;46321;48.398;11.754;2023-03-30T14:24:14;96288.09;;;12.16;75.91
60479;BME280;46321;48.398;11.754;2023-03-30T14:26:41;96283.00;;;11.99;76.36
60479;BME280;46321;48.398;11.754;2023-03-30T14:29:13;96274.81;;;11.94;76.35
60479;BME280;46321;48.398;11.754;2023-03-30T14:31:41;96263.66;;;11.83;77.48
60479;BME280;46321;48.398;11.754;2023-03-30T14:34:39;96249.28;;;11.93;76.72
60479;BME280;46321;48.398;11.754;2023-03-30T14:37:09;96241.66;;;11.83;77.51
60479;BME280;46321;48.398;11.754;2023-03-30T14:39:42;96232.16;;;11.95;77.30
60479;BME280;46321;48.398;11.754;2023-03-30T14:42:16;96224.69;;;12.06;77.15
60479;BME280;46321;48.398;11.754;2023-03-30T14:44:44;96209.06;;;11.89;78.24